createdAt,value
2018-06-24T00:00:07.020Z,14.30
2018-06-24T00:02:37.711Z,14.10
2018-06-24T00:05:07.998Z,14.00
2018-06-24T00:07:39.265Z,14.00
2018-06-24T00:10:09.928Z,13.90
2018-06-24T00:12:41.665Z,13.80
2018-06-24T00:15:12.060Z,13.70
2018-06-24T00:17:42.470Z,13.50
2018-06-24T00:20:12.747Z,13.50
2018-06-24T00:22:43.503Z,13.40
2018-06-24T00:25:14.443Z,13.40
2018-06-24T00:27:44.770Z,13.40
2018-06-24T00:30:15.108Z,13.40
2018-06-24T00:32:45.586Z,13.30
2018-06-24T00:35:16.043Z,13.20
2018-06-24T00:37:46.421Z,13.10
2018-06-24T00:40:16.727Z,13.00
2018-06-24T00:42:47.055Z,12.80
2018-06-24T00:45:17.490Z,12.70
2018-06-24T00:47:48.157Z,12.70
2018-06-24T00:50:18.455Z,12.70
2018-06-24T00:52:48.682Z,12.60
2018-06-24T00:55:19.083Z,12.50
2018-06-24T00:57:49.418Z,12.40
2018-06-24T01:00:20.121Z,12.40
2018-06-24T01:02:50.748Z,12.30
2018-06-24T01:05:21.186Z,12.20
2018-06-24T01:07:51.464Z,12.20
2018-06-24T01:10:21.854Z,12.20
2018-06-24T01:12:52.399Z,12.00
2018-06-24T01:15:23.045Z,12.00
2018-06-24T01:17:53.535Z,12.00
2018-06-24T01:20:23.842Z,11.90
2018-06-24T01:22:54.225Z,11.80
2018-06-24T01:25:30.648Z,11.80
2018-06-24T01:28:08.332Z,11.70
2018-06-24T01:30:39.200Z,11.60
2018-06-24T01:33:10.300Z,11.60
2018-06-24T01:35:40.720Z,11.60
2018-06-24T01:38:10.999Z,11.50
2018-06-24T01:40:41.336Z,11.40
2018-06-24T01:43:11.694Z,11.40
2018-06-24T01:45:42.018Z,11.40
2018-06-24T01:48:12.538Z,11.40
2018-06-24T01:50:42.994Z,11.40
2018-06-24T01:53:13.335Z,11.30
2018-06-24T01:55:43.591Z,11.20
2018-06-24T01:58:13.869Z,11.10
2018-06-24T02:00:44.170Z,11.20
2018-06-24T02:03:14.432Z,11.20
2018-06-24T02:05:44.827Z,11.10
2018-06-24T02:08:15.376Z,11.00
2018-06-24T02:10:45.837Z,11.00
2018-06-24T02:13:16.281Z,11.00
2018-06-24T02:15:46.781Z,11.10
2018-06-24T02:18:17.507Z,11.10
2018-06-24T02:20:47.816Z,11.10
2018-06-24T02:23:18.374Z,11.10
2018-06-24T02:25:48.775Z,11.10
2018-06-24T02:28:19.309Z,10.90
2018-06-24T02:30:49.948Z,11.00
2018-06-24T02:33:20.334Z,11.00
2018-06-24T02:35:50.835Z,11.00
2018-06-24T02:38:21.311Z,11.00
2018-06-24T02:40:51.703Z,11.00
2018-06-24T02:43:22.072Z,11.00
2018-06-24T02:45:52.614Z,11.00
2018-06-24T02:48:22.876Z,10.90
2018-06-24T02:50:53.215Z,10.90
2018-06-24T02:53:23.960Z,10.80
2018-06-24T02:55:54.430Z,10.80
2018-06-24T02:58:24.761Z,10.80
2018-06-24T03:00:55.151Z,10.80
2018-06-24T03:03:25.463Z,10.80
2018-06-24T03:05:55.947Z,10.80
2018-06-24T03:08:26.249Z,10.70
2018-06-24T03:10:56.519Z,10.70
2018-06-24T03:13:27.133Z,10.70
2018-06-24T03:15:57.683Z,10.70
2018-06-24T03:18:27.886Z,10.70
2018-06-24T03:20:58.147Z,10.80
2018-06-24T03:23:28.415Z,10.80
2018-06-24T03:25:58.704Z,10.80
2018-06-24T03:28:28.910Z,10.80
2018-06-24T03:30:59.338Z,10.80
2018-06-24T03:33:29.843Z,10.90
2018-06-24T03:36:00.196Z,10.90
2018-06-24T03:38:30.690Z,11.00
2018-06-24T03:41:00.960Z,11.00
2018-06-24T03:43:31.408Z,11.00
2018-06-24T03:46:01.666Z,11.00
2018-06-24T03:48:31.919Z,11.10
2018-06-24T03:51:02.179Z,11.20
2018-06-24T03:53:32.826Z,11.20
2018-06-24T03:56:03.138Z,11.30
2018-06-24T03:58:33.672Z,11.30
2018-06-24T04:01:03.959Z,11.40
2018-06-24T04:03:34.216Z,11.40
2018-06-24T04:06:04.528Z,11.50
2018-06-24T04:08:34.742Z,11.60
2018-06-24T04:11:05.074Z,11.60
2018-06-24T04:13:35.275Z,11.60
2018-06-24T04:16:06.811Z,11.60
2018-06-24T04:18:41.603Z,11.70
2018-06-24T04:21:13.798Z,11.80
2018-06-24T04:23:45.008Z,11.80
2018-06-24T04:26:15.360Z,11.90
2018-06-24T04:28:46.027Z,12.00
2018-06-24T04:31:16.274Z,12.10
2018-06-24T04:33:46.546Z,12.10
2018-06-24T04:36:16.873Z,12.30
2018-06-24T04:38:47.091Z,12.40
2018-06-24T04:41:17.358Z,12.40
2018-06-24T04:43:47.583Z,12.40
2018-06-24T04:46:17.831Z,12.50
2018-06-24T04:48:48.051Z,12.60
2018-06-24T04:51:18.335Z,12.70
2018-06-24T04:53:48.563Z,12.80
2018-06-24T04:56:18.791Z,12.90
2018-06-24T04:58:49.034Z,13.00
2018-06-24T05:01:19.264Z,13.10
2018-06-24T05:03:49.549Z,13.00
2018-06-24T05:06:19.827Z,13.10
2018-06-24T05:08:50.073Z,13.20
2018-06-24T05:11:20.343Z,13.20
2018-06-24T05:13:50.612Z,13.20
2018-06-24T05:16:20.895Z,13.30
2018-06-24T05:18:51.194Z,13.50
2018-06-24T05:21:21.443Z,13.70
2018-06-24T05:23:51.692Z,13.90
2018-06-24T05:26:21.894Z,14.10
2018-06-24T05:28:52.458Z,14.20
2018-06-24T05:31:22.658Z,14.40
2018-06-24T05:33:52.890Z,14.50
2018-06-24T05:36:23.090Z,14.70
2018-06-24T05:38:53.681Z,14.80
2018-06-24T05:41:24.864Z,14.90
2018-06-24T05:43:55.926Z,15.00
2018-06-24T05:46:26.256Z,15.10
2018-06-24T05:48:56.753Z,15.30
2018-06-24T05:51:27.052Z,15.40
2018-06-24T05:53:57.439Z,15.50
2018-06-24T05:56:28.333Z,15.70
2018-06-24T05:58:58.707Z,15.80
2018-06-24T06:01:29.063Z,16.00
2018-06-24T06:03:59.524Z,16.00
2018-06-24T06:06:29.810Z,16.20
2018-06-24T06:09:00.081Z,16.30
2018-06-24T06:11:30.365Z,16.40
2018-06-24T06:14:00.693Z,16.50
2018-06-24T06:16:31.028Z,16.60
2018-06-24T06:19:01.585Z,16.80
2018-06-24T06:21:32.059Z,16.80
2018-06-24T06:24:02.480Z,16.80
2018-06-24T06:26:32.859Z,16.80
2018-06-24T06:29:03.152Z,16.90
2018-06-24T06:31:33.780Z,17.00
2018-06-24T06:34:04.128Z,17.20
2018-06-24T06:36:34.768Z,17.60
2018-06-24T06:39:07.884Z,17.80
2018-06-24T06:41:38.287Z,18.00
2018-06-24T06:44:08.631Z,18.20
2018-06-24T06:46:39.075Z,18.30
2018-06-24T06:49:09.708Z,18.40
2018-06-24T06:51:40.143Z,18.40
2018-06-24T06:54:10.594Z,18.40
2018-06-24T06:56:41.615Z,18.40
2018-06-24T06:59:12.087Z,18.40
2018-06-24T07:01:42.586Z,18.50
2018-06-24T07:04:12.920Z,18.50
2018-06-24T07:06:43.171Z,18.60
2018-06-24T07:09:13.741Z,18.70
2018-06-24T07:11:43.968Z,18.90
2018-06-24T07:14:14.253Z,19.00
2018-06-24T07:16:44.504Z,19.20
2018-06-24T07:19:14.850Z,19.30
2018-06-24T07:21:45.107Z,19.40
2018-06-24T07:24:15.411Z,19.40
2018-06-24T07:26:45.715Z,19.50
2018-06-24T07:29:16.042Z,19.70
2018-06-24T07:31:46.284Z,19.90
2018-06-24T07:34:16.675Z,20.00
2018-06-24T07:36:46.908Z,19.90
2018-06-24T07:39:17.271Z,20.10
2018-06-24T07:41:47.470Z,20.10
2018-06-24T07:44:17.774Z,20.40
2018-06-24T07:46:49.243Z,20.60
2018-06-24T07:49:21.803Z,20.60
2018-06-24T07:51:52.113Z,20.70
2018-06-24T07:54:22.651Z,20.70
2018-06-24T07:56:53.111Z,20.40
2018-06-24T07:59:23.940Z,20.20
2018-06-24T08:01:54.343Z,20.20
2018-06-24T08:04:24.914Z,20.20
2018-06-24T08:06:55.403Z,20.20
2018-06-24T08:09:25.994Z,20.10
2018-06-24T08:12:02.586Z,20.20
2018-06-24T08:14:34.460Z,20.40
2018-06-24T08:17:06.911Z,20.50
2018-06-24T08:19:38.527Z,20.60
2018-06-24T08:22:09.368Z,20.60
2018-06-24T08:24:39.978Z,20.70
2018-06-24T08:27:10.956Z,20.80
2018-06-24T08:29:41.567Z,20.90
2018-06-24T08:32:12.818Z,20.90
2018-06-24T08:34:44.145Z,21.30
2018-06-24T08:37:14.698Z,21.30
2018-06-24T08:39:45.858Z,21.30
2018-06-24T08:42:16.895Z,21.40
2018-06-24T08:44:48.071Z,21.50
2018-06-24T08:47:19.400Z,21.80
2018-06-24T08:49:50.425Z,22.00
2018-06-24T08:52:21.539Z,21.80
2018-06-24T08:54:52.898Z,21.90
2018-06-24T08:57:24.155Z,22.00
2018-06-24T08:59:59.514Z,22.20
2018-06-24T09:02:30.699Z,22.20
2018-06-24T09:05:01.236Z,22.20
2018-06-24T09:07:31.868Z,22.30
2018-06-24T09:10:02.354Z,22.50
2018-06-24T09:12:32.629Z,22.50
2018-06-24T09:15:02.860Z,22.40
2018-06-24T09:17:33.350Z,22.40
2018-06-24T09:20:04.537Z,22.40
2018-06-24T09:22:34.816Z,22.30
2018-06-24T09:25:05.221Z,22.30
2018-06-24T09:27:35.555Z,22.60
2018-06-24T09:30:06.191Z,22.70
2018-06-24T09:32:44.449Z,22.80
2018-06-24T09:35:17.863Z,23.00
2018-06-24T09:37:48.831Z,23.10
2018-06-24T09:40:20.823Z,23.00
2018-06-24T09:42:51.144Z,23.10
2018-06-24T09:45:21.403Z,23.30
2018-06-24T09:47:54.647Z,23.40
2018-06-24T09:50:29.911Z,23.40
2018-06-24T09:53:02.595Z,23.30
2018-06-24T09:55:33.607Z,23.20
2018-06-24T09:58:06.623Z,23.40
2018-06-24T10:00:38.000Z,23.50
2018-06-24T10:03:10.478Z,23.50
2018-06-24T10:05:42.542Z,23.40
2018-06-24T10:08:13.969Z,23.70
2018-06-24T10:10:45.603Z,23.70
2018-06-24T10:13:16.129Z,23.80
2018-06-24T10:15:47.940Z,23.90
2018-06-24T10:18:18.617Z,24.10
2018-06-24T10:20:49.044Z,24.30
2018-06-24T10:23:19.349Z,24.60
2018-06-24T10:25:49.847Z,24.70
2018-06-24T10:28:22.561Z,24.50
2018-06-24T10:31:02.977Z,24.30
2018-06-24T10:33:42.599Z,24.20
2018-06-24T10:36:22.754Z,24.00
2018-06-24T10:38:53.287Z,24.10
2018-06-24T10:41:42.392Z,24.30
2018-06-24T10:44:16.114Z,24.40
2018-06-24T10:46:47.630Z,24.20
2018-06-24T10:49:28.829Z,24.20
2018-06-24T10:52:06.620Z,24.30
2018-06-24T10:54:39.040Z,24.80
2018-06-24T10:57:11.383Z,24.80
2018-06-24T10:59:50.892Z,24.90
2018-06-24T11:02:25.671Z,25.20
2018-06-24T11:04:59.781Z,25.40
2018-06-24T11:07:48.897Z,25.80
2018-06-24T11:10:33.053Z,26.20
2018-06-24T11:13:10.148Z,26.70
2018-06-24T11:15:46.953Z,26.80
2018-06-24T11:18:24.083Z,26.80
2018-06-24T11:21:12.263Z,26.40
2018-06-24T11:23:47.646Z,26.00
2018-06-24T11:26:18.624Z,25.60
2018-06-24T11:28:57.848Z,25.20
2018-06-24T11:31:30.379Z,25.10
2018-06-24T11:34:09.734Z,25.20
2018-06-24T11:36:40.649Z,25.10
2018-06-24T11:41:41.574Z,25.10
2018-06-24T11:44:12.401Z,25.50
2018-06-24T11:46:42.765Z,26.00
2018-06-24T11:49:13.085Z,26.50
2018-06-24T11:54:13.211Z,26.20
2018-06-24T11:56:43.447Z,26.10
2018-06-24T11:59:13.704Z,25.30
2018-06-24T12:01:43.972Z,25.10
2018-06-24T12:04:14.303Z,24.80
2018-06-24T12:06:44.618Z,24.60
2018-06-24T12:09:14.782Z,24.30
2018-06-24T12:11:46.437Z,24.30
2018-06-24T12:14:21.951Z,24.10
2018-06-24T12:16:52.946Z,23.70
2018-06-24T12:19:23.388Z,23.30
2018-06-24T12:21:53.672Z,23.00
2018-06-24T12:24:25.820Z,22.80
2018-06-24T12:26:56.295Z,22.80
2018-06-24T12:29:27.040Z,22.70
2018-06-24T12:31:57.773Z,22.70
2018-06-24T12:34:30.735Z,22.70
2018-06-24T12:37:09.282Z,22.80
2018-06-24T12:39:50.970Z,22.90
2018-06-24T12:42:25.564Z,22.90
2018-06-24T12:44:58.764Z,23.00
2018-06-24T12:47:35.468Z,23.20
2018-06-24T12:50:06.914Z,23.30
2018-06-24T12:52:37.270Z,23.30
2018-06-24T12:55:07.556Z,23.40
2018-06-24T12:57:37.899Z,23.60
2018-06-24T13:00:08.666Z,23.80
2018-06-24T13:02:38.941Z,23.90
2018-06-24T13:05:10.129Z,23.90
2018-06-24T13:07:40.645Z,23.90
2018-06-24T13:10:11.931Z,23.90
2018-06-24T13:12:42.355Z,23.90
2018-06-24T13:15:12.907Z,23.80
2018-06-24T13:17:43.797Z,23.70
2018-06-24T13:20:14.279Z,23.60
2018-06-24T13:22:48.271Z,23.50
2018-06-24T13:25:18.665Z,23.50
2018-06-24T13:27:49.370Z,23.40
2018-06-24T13:30:22.518Z,23.40
2018-06-24T13:32:54.388Z,23.30
2018-06-24T13:35:24.863Z,23.00
2018-06-24T13:37:59.384Z,22.70
2018-06-24T13:40:31.251Z,22.50
2018-06-24T13:43:01.591Z,22.40
2018-06-24T13:45:32.926Z,22.50
2018-06-24T13:48:05.744Z,22.60
2018-06-24T13:50:36.998Z,22.80
2018-06-24T13:53:07.817Z,22.90
2018-06-24T13:55:38.081Z,22.90
2018-06-24T13:58:08.401Z,23.00
2018-06-24T14:00:39.966Z,23.00
2018-06-24T14:03:11.017Z,22.90
2018-06-24T14:05:42.058Z,23.10
2018-06-24T14:08:12.404Z,23.20
2018-06-24T14:10:43.190Z,23.20
2018-06-24T14:13:13.471Z,23.10
2018-06-24T14:15:43.854Z,23.00
2018-06-24T14:18:14.199Z,22.90
2018-06-24T14:20:44.453Z,22.90
2018-06-24T14:23:14.798Z,22.90
2018-06-24T14:25:46.114Z,22.90
2018-06-24T14:28:16.655Z,23.00
2018-06-24T14:30:47.067Z,22.90
2018-06-24T14:33:17.400Z,22.80
2018-06-24T14:35:47.616Z,22.80
2018-06-24T14:38:17.904Z,22.70
2018-06-24T14:40:48.262Z,22.80
2018-06-24T14:43:18.649Z,22.90
2018-06-24T14:45:51.627Z,22.90
2018-06-24T14:48:24.110Z,23.10
2018-06-24T14:51:07.287Z,23.10
2018-06-24T14:53:37.956Z,23.10
2018-06-24T14:56:11.511Z,22.90
2018-06-24T14:58:42.499Z,22.80
2018-06-24T15:01:15.518Z,22.80
2018-06-24T15:03:45.934Z,22.70
2018-06-24T15:06:17.778Z,22.60
2018-06-24T15:08:54.151Z,22.60
2018-06-24T15:11:25.269Z,22.70
2018-06-24T15:13:57.532Z,22.70
2018-06-24T15:16:29.524Z,22.50
2018-06-24T15:19:01.424Z,22.30
2018-06-24T15:21:32.618Z,22.30
2018-06-24T15:24:03.018Z,22.40
2018-06-24T15:26:33.323Z,22.50
2018-06-24T15:29:03.736Z,22.40
2018-06-24T15:31:34.643Z,22.30
2018-06-24T15:34:05.255Z,22.20
2018-06-24T15:36:35.558Z,22.10
2018-06-24T15:39:09.675Z,22.00
2018-06-24T15:41:40.058Z,21.90
2018-06-24T15:44:10.420Z,21.70
2018-06-24T15:46:40.958Z,21.60
2018-06-24T15:49:11.435Z,21.50
2018-06-24T15:54:11.706Z,21.50
2018-06-24T15:56:42.070Z,21.50
2018-06-24T15:59:18.257Z,21.60
2018-06-24T16:01:48.608Z,21.60
2018-06-24T16:04:18.994Z,21.50
2018-06-24T16:06:49.250Z,21.40
2018-06-24T16:09:20.575Z,21.50
2018-06-24T16:11:51.381Z,21.70
2018-06-24T16:14:23.041Z,22.20
2018-06-24T16:16:54.385Z,22.80
2018-06-24T16:19:24.904Z,23.20
2018-06-24T16:21:55.199Z,23.40
2018-06-24T16:24:25.852Z,23.50
2018-06-24T16:26:56.131Z,23.60
2018-06-24T16:29:26.643Z,23.80
2018-06-24T16:31:56.913Z,24.10
2018-06-24T16:34:27.372Z,23.80
2018-06-24T16:36:57.856Z,23.80
2018-06-24T16:39:28.083Z,23.50
2018-06-24T16:41:58.423Z,23.30
2018-06-24T16:44:28.846Z,23.10
2018-06-24T16:46:59.143Z,23.20
2018-06-24T16:49:29.511Z,22.90
2018-06-24T16:52:00.295Z,22.70
2018-06-24T16:54:30.716Z,22.40
2018-06-24T16:57:08.619Z,22.20
2018-06-24T16:59:42.708Z,22.10
2018-06-24T17:02:14.515Z,21.90
2018-06-24T17:07:19.053Z,21.70
2018-06-24T17:09:49.615Z,21.70
2018-06-24T17:12:21.791Z,21.60
2018-06-24T17:14:52.067Z,21.60
2018-06-24T17:17:29.924Z,21.50
2018-06-24T17:20:05.163Z,21.40
2018-06-24T17:22:35.622Z,21.30
2018-06-24T17:25:09.381Z,21.20
2018-06-24T17:27:40.894Z,21.10
2018-06-24T17:30:21.219Z,21.10
2018-06-24T17:32:58.309Z,21.00
2018-06-24T17:35:30.816Z,21.00
2018-06-24T17:38:01.738Z,21.00
2018-06-24T17:40:33.221Z,20.70
2018-06-24T17:43:04.187Z,20.60
2018-06-24T17:45:35.267Z,20.50
2018-06-24T17:48:06.697Z,20.50
2018-06-24T17:50:37.095Z,20.60
2018-06-24T17:53:09.450Z,20.70
2018-06-24T17:55:39.889Z,20.70
2018-06-24T17:58:11.356Z,20.60
2018-06-24T18:00:41.807Z,20.60
2018-06-24T18:03:12.695Z,20.60
2018-06-24T18:05:44.737Z,20.60
2018-06-24T18:08:15.846Z,20.50
2018-06-24T18:10:46.027Z,20.30
2018-06-24T18:13:16.316Z,20.40
2018-06-24T18:15:46.726Z,20.30
2018-06-24T18:18:16.986Z,20.20
2018-06-24T18:20:47.279Z,20.00
2018-06-24T18:23:17.510Z,20.00
2018-06-24T18:25:47.892Z,19.80
2018-06-24T18:28:18.283Z,19.70
2018-06-24T18:30:48.655Z,19.60
2018-06-24T18:33:18.949Z,19.40
2018-06-24T18:35:49.211Z,19.40
2018-06-24T18:38:19.467Z,19.50
2018-06-24T18:40:49.769Z,19.40
2018-06-24T18:43:20.032Z,19.40
2018-06-24T18:45:50.355Z,19.40
2018-06-24T18:48:20.790Z,19.40
2018-06-24T18:50:51.075Z,19.30
2018-06-24T18:53:21.388Z,19.30
2018-06-24T18:55:51.733Z,19.30
2018-06-24T19:00:52.581Z,19.40
2018-06-24T19:03:23.100Z,19.50
2018-06-24T19:05:53.430Z,19.50
2018-06-24T19:08:23.769Z,19.50
2018-06-24T19:13:24.026Z,19.40
2018-06-24T19:15:54.292Z,19.30
2018-06-24T19:18:24.751Z,19.30
2018-06-24T19:20:55.325Z,19.30
2018-06-24T19:23:25.867Z,19.30
2018-06-24T19:25:56.558Z,19.30
2018-06-24T19:28:27.665Z,19.20
2018-06-24T19:30:58.248Z,19.20
2018-06-24T19:33:28.930Z,19.20
2018-06-24T19:35:59.396Z,19.20
2018-06-24T19:38:29.704Z,19.20
2018-06-24T19:41:00.143Z,19.20
2018-06-24T19:43:30.526Z,19.10
2018-06-24T19:46:01.115Z,19.00
2018-06-24T19:48:31.983Z,18.90
2018-06-24T19:51:02.751Z,18.80
2018-06-24T19:53:33.123Z,18.70
2018-06-24T19:56:03.458Z,18.60
2018-06-24T19:58:33.748Z,18.50
2018-06-24T20:01:04.012Z,18.40
2018-06-24T20:03:35.224Z,18.40
2018-06-24T20:06:05.476Z,18.40
2018-06-24T20:08:35.843Z,18.40
2018-06-24T20:11:06.135Z,18.30
2018-06-24T20:13:36.511Z,18.30
2018-06-24T20:16:08.166Z,18.20
2018-06-24T20:18:39.516Z,18.20
2018-06-24T20:21:10.689Z,18.10
2018-06-24T20:23:42.645Z,18.10
2018-06-24T20:26:13.379Z,18.10
2018-06-24T20:28:44.893Z,18.00
2018-06-24T20:31:15.323Z,18.10
2018-06-24T20:33:45.651Z,18.10
2018-06-24T20:36:15.960Z,18.10
2018-06-24T20:38:46.284Z,18.10
2018-06-24T20:41:16.530Z,18.00
2018-06-24T20:43:46.882Z,17.90
2018-06-24T20:46:17.199Z,17.80
2018-06-24T20:48:47.904Z,17.80
2018-06-24T20:51:18.147Z,17.70
2018-06-24T20:53:50.815Z,17.70
2018-06-24T20:56:22.123Z,17.80
2018-06-24T20:58:53.475Z,17.80
2018-06-24T21:01:25.105Z,17.70
2018-06-24T21:03:56.374Z,17.50
2018-06-24T21:06:28.308Z,17.50
2018-06-24T21:09:01.512Z,17.50
2018-06-24T21:11:35.186Z,17.50
2018-06-24T21:14:09.681Z,17.40
2018-06-24T21:16:41.090Z,17.40
2018-06-24T21:19:12.015Z,17.40
2018-06-24T21:21:43.274Z,17.40
2018-06-24T21:24:14.084Z,17.30
2018-06-24T21:26:45.132Z,17.30
2018-06-24T21:29:15.952Z,17.40
2018-06-24T21:31:47.602Z,17.40
2018-06-24T21:34:19.121Z,17.40
2018-06-24T21:36:51.949Z,17.40
2018-06-24T21:39:23.977Z,17.40
2018-06-24T21:41:55.182Z,17.40
2018-06-24T21:44:26.820Z,17.40
2018-06-24T21:46:57.933Z,17.30
2018-06-24T21:49:30.487Z,17.30
2018-06-24T21:52:01.253Z,17.30
2018-06-24T21:54:32.369Z,17.40
2018-06-24T21:57:13.113Z,17.40
2018-06-24T21:59:47.424Z,17.40
2018-06-24T22:02:19.888Z,17.50
2018-06-24T22:04:50.757Z,17.50
2018-06-24T22:07:22.275Z,17.30
2018-06-24T22:09:54.453Z,17.30
2018-06-24T22:12:25.780Z,17.20
2018-06-24T22:14:56.809Z,17.20
2018-06-24T22:17:28.127Z,17.20
2018-06-24T22:19:59.208Z,17.20
2018-06-24T22:22:31.011Z,17.20
2018-06-24T22:25:01.510Z,17.30
2018-06-24T22:27:33.286Z,17.20
2018-06-24T22:30:06.744Z,17.30
2018-06-24T22:32:37.275Z,17.30
2018-06-24T22:35:09.465Z,17.30
2018-06-24T22:37:40.913Z,17.40
2018-06-24T22:40:11.493Z,17.50
2018-06-24T22:42:44.313Z,17.50
2018-06-24T22:45:15.111Z,17.60
2018-06-24T22:47:46.254Z,17.70
2018-06-24T22:50:16.647Z,17.70
2018-06-24T22:52:48.443Z,17.70
2018-06-24T22:55:20.238Z,17.70
2018-06-24T22:57:51.099Z,17.60
2018-06-24T23:00:23.008Z,17.60
2018-06-24T23:02:53.916Z,17.50
2018-06-24T23:05:25.715Z,17.50
2018-06-24T23:07:56.096Z,17.40
2018-06-24T23:10:26.315Z,17.30
2018-06-24T23:12:56.711Z,17.20
2018-06-24T23:15:27.015Z,17.20
2018-06-24T23:17:57.383Z,17.10
2018-06-24T23:20:27.718Z,16.90
2018-06-24T23:22:58.294Z,16.90
2018-06-24T23:25:28.678Z,17.00
2018-06-24T23:27:58.957Z,17.10
2018-06-24T23:30:29.181Z,17.20
2018-06-24T23:32:59.596Z,17.20
2018-06-24T23:35:30.152Z,17.30
2018-06-24T23:38:00.459Z,17.20
2018-06-24T23:40:30.732Z,17.30
2018-06-24T23:43:00.975Z,17.30
2018-06-24T23:45:31.202Z,17.40
2018-06-24T23:48:01.419Z,17.30
2018-06-24T23:50:31.712Z,17.20
2018-06-24T23:53:01.923Z,17.10
2018-06-24T23:55:32.554Z,17.00
2018-06-24T23:58:02.787Z,16.90
